sensor_id;sensor_type;location;lat;lon;timestamp;temperature;humidity
71297;SHT31;59082;50.658;4.608;2022-12-10T07:23:36;-1.58;99.99
71297;SHT31;59082;50.658;4.608;2022-12-10T07:26:02;-1.56;99.99
71297;SHT31;59082;50.658;4.608;2022-12-10T07:28:27;-1.72;99.99
71297;SHT31;59082;50.658;4.608;2022-12-10T07:31:03;-1.66;99.99
71297;SHT31;59082;50.658;4.608;2022-12-10T07:33:29;-1.69;99.99
71297;SHT31;59082;50.658;4.608;2022-12-10T07:35:54;-1.52;99.99
71297;SHT31;59082;50.658;4.608;2022-12-10T07:38:20;-1.47;99.99
71297;SHT31;59082;50.658;4.608;2022-12-10T07:40:45;-1.48;99.99
71297;SHT31;59082;50.658;4.608;2022-12-10T07:43:11;-1.41;99.99
71297;SHT31;59082;50.658;4.608;2022-12-10T07:45:36;-1.45;99.99
71297;SHT31;59082;50.658;4.608;2022-12-10T07:48:02;-1.52;99.99
71297;SHT31;59082;50.658;4.608;2022-12-10T07:50:27;-1.51;99.99
71297;SHT31;59082;50.658;4.608;2022-12-10T07:52:53;-1.52;99.99
71297;SHT31;59082;50.658;4.608;2022-12-10T07:55:18;-1.47;99.99
71297;SHT31;59082;50.658;4.608;2022-12-10T07:57:44;-1.42;99.99
71297;SHT31;59082;50.658;4.608;2022-12-10T08:00:10;-1.54;99.99
71297;SHT31;59082;50.658;4.608;2022-12-10T08:02:36;-1.58;99.99
71297;SHT31;59082;50.658;4.608;2022-12-10T08:05:01;-1.58;99.99
71297;SHT31;59082;50.658;4.608;2022-12-10T08:07:27;-1.66;99.99
71297;SHT31;59082;50.658;4.608;2022-12-10T08:09:52;-1.58;99.99
71297;SHT31;59082;50.658;4.608;2022-12-10T08:12:18;-1.52;99.99
71297;SHT31;59082;50.658;4.608;2022-12-10T08:14:43;-1.37;99.99
71297;SHT31;59082;50.658;4.608;2022-12-10T08:17:09;-1.35;99.99
71297;SHT31;59082;50.658;4.608;2022-12-10T08:19:34;-1.34;99.99
71297;SHT31;59082;50.658;4.608;2022-12-10T08:22:00;-1.38;99.99
71297;SHT31;59082;50.658;4.608;2022-12-10T08:24:25;-1.25;99.99
71297;SHT31;59082;50.658;4.608;2022-12-10T08:26:51;-1.27;99.99
71297;SHT31;59082;50.658;4.608;2022-12-10T08:29:16;-1.23;99.99
71297;SHT31;59082;50.658;4.608;2022-12-10T08:31:42;-1.17;99.99
71297;SHT31;59082;50.658;4.608;2022-12-10T08:34:15;-1.18;99.99
71297;SHT31;59082;50.658;4.608;2022-12-10T08:36:42;-1.18;99.99
71297;SHT31;59082;50.658;4.608;2022-12-10T08:39:07;-1.07;99.99
71297;SHT31;59082;50.658;4.608;2022-12-10T08:41:35;-1.05;99.99
71297;SHT31;59082;50.658;4.608;2022-12-10T08:44:01;-1.10;99.99
71297;SHT31;59082;50.658;4.608;2022-12-10T08:46:27;-1.30;99.99
71297;SHT31;59082;50.658;4.608;2022-12-10T08:48:54;-1.24;99.99
71297;SHT31;59082;50.658;4.608;2022-12-10T08:51:20;-1.18;99.99
71297;SHT31;59082;50.658;4.608;2022-12-10T08:53:46;-1.14;99.99
71297;SHT31;59082;50.658;4.608;2022-12-10T08:56:12;-1.24;99.99
71297;SHT31;59082;50.658;4.608;2022-12-10T08:58:38;-1.17;99.99
71297;SHT31;59082;50.658;4.608;2022-12-10T09:01:15;-1.14;99.99
71297;SHT31;59082;50.658;4.608;2022-12-10T09:03:41;-1.08;99.99
71297;SHT31;59082;50.658;4.608;2022-12-10T09:06:15;-1.05;99.99
71297;SHT31;59082;50.658;4.608;2022-12-10T09:08:41;-1.13;99.99
71297;SHT31;59082;50.658;4.608;2022-12-10T09:11:19;-1.04;99.99
71297;SHT31;59082;50.658;4.608;2022-12-10T09:13:46;-0.89;99.99
71297;SHT31;59082;50.658;4.608;2022-12-10T09:16:11;-0.90;99.99
71297;SHT31;59082;50.658;4.608;2022-12-10T09:18:38;-0.99;99.99
71297;SHT31;59082;50.658;4.608;2022-12-10T09:21:13;-0.90;99.99
71297;SHT31;59082;50.658;4.608;2022-12-10T09:23:41;-0.97;99.99
71297;SHT31;59082;50.658;4.608;2022-12-10T09:26:12;-0.90;99.99
71297;SHT31;59082;50.658;4.608;2022-12-10T09:28:38;-0.90;99.99
71297;SHT31;59082;50.658;4.608;2022-12-10T09:31:05;-0.77;99.99
71297;SHT31;59082;50.658;4.608;2022-12-10T09:33:31;-0.55;99.99
71297;SHT31;59082;50.658;4.608;2022-12-10T09:35:57;-0.46;99.99
71297;SHT31;59082;50.658;4.608;2022-12-10T09:38:23;-0.52;99.99
71297;SHT31;59082;50.658;4.608;2022-12-10T09:41:00;-0.35;99.99
71297;SHT31;59082;50.658;4.608;2022-12-10T09:43:39;-0.39;99.99
71297;SHT31;59082;50.658;4.608;2022-12-10T09:46:13;-0.51;99.99
71297;SHT31;59082;50.658;4.608;2022-12-10T09:51:38;-0.54;99.99
71297;SHT31;59082;50.658;4.608;2022-12-10T09:54:15;-0.44;99.99
71297;SHT31;59082;50.658;4.608;2022-12-10T09:56:44;-0.34;99.99
71297;SHT31;59082;50.658;4.608;2022-12-10T09:59:23;-0.25;99.99
71297;SHT31;59082;50.658;4.608;2022-12-10T10:04:37;-0.61;99.99
71297;SHT31;59082;50.658;4.608;2022-12-10T10:07:04;-0.72;99.99
71297;SHT31;59082;50.658;4.608;2022-12-10T10:09:32;-0.80;99.99
71297;SHT31;59082;50.658;4.608;2022-12-10T10:12:00;-0.66;99.99
71297;SHT31;59082;50.658;4.608;2022-12-10T10:14:30;-0.68;99.99
71297;SHT31;59082;50.658;4.608;2022-12-10T10:17:11;-0.94;99.99
71297;SHT31;59082;50.658;4.608;2022-12-10T10:19:39;-0.79;99.99
71297;SHT31;59082;50.658;4.608;2022-12-10T10:22:08;-0.77;99.99
71297;SHT31;59082;50.658;4.608;2022-12-10T10:24:36;-0.73;99.99
71297;SHT31;59082;50.658;4.608;2022-12-10T10:27:29;-0.58;99.99
71297;SHT31;59082;50.658;4.608;2022-12-10T10:29:57;-0.54;99.99
71297;SHT31;59082;50.658;4.608;2022-12-10T10:32:25;-0.58;99.99
71297;SHT31;59082;50.658;4.608;2022-12-10T10:34:57;-0.49;99.99
71297;SHT31;59082;50.658;4.608;2022-12-10T10:37:29;-0.49;99.99
71297;SHT31;59082;50.658;4.608;2022-12-10T10:39:55;-0.51;99.99
71297;SHT31;59082;50.658;4.608;2022-12-10T10:42:41;-0.39;99.99
71297;SHT31;59082;50.658;4.608;2022-12-10T10:45:38;-0.22;99.99
71297;SHT31;59082;50.658;4.608;2022-12-10T10:48:11;-0.19;99.99
71297;SHT31;59082;50.658;4.608;2022-12-10T10:55:52;-0.07;99.99
71297;SHT31;59082;50.658;4.608;2022-12-10T10:58:20;-0.21;99.99
71297;SHT31;59082;50.658;4.608;2022-12-10T11:01:01;-0.14;99.99
71297;SHT31;59082;50.658;4.608;2022-12-10T11:03:29;0.04;99.99
71297;SHT31;59082;50.658;4.608;2022-12-10T11:05:56;0.10;99.99
71297;SHT31;59082;50.658;4.608;2022-12-10T11:08:24;0.11;99.99
71297;SHT31;59082;50.658;4.608;2022-12-10T11:10:56;0.13;99.99
71297;SHT31;59082;50.658;4.608;2022-12-10T11:13:28;0.34;99.99
71297;SHT31;59082;50.658;4.608;2022-12-10T11:16:00;0.21;99.99
71297;SHT31;59082;50.658;4.608;2022-12-10T11:18:30;0.15;99.99
71297;SHT31;59082;50.658;4.608;2022-12-10T11:21:15;0.44;99.99
71297;SHT31;59082;50.658;4.608;2022-12-10T11:23:43;0.42;99.99
71297;SHT31;59082;50.658;4.608;2022-12-10T11:48:20;0.06;99.99
71297;SHT31;59082;50.658;4.608;2022-12-10T11:50:57;0.03;99.99
71297;SHT31;59082;50.658;4.608;2022-12-10T11:53:39;0.06;99.99
71297;SHT31;59082;50.658;4.608;2022-12-10T11:56:40;0.15;99.99
71297;SHT31;59082;50.658;4.608;2022-12-10T12:01:59;0.24;99.99
71297;SHT31;59082;50.658;4.608;2022-12-10T12:17:59;0.51;99.99
71297;SHT31;59082;50.658;4.608;2022-12-10T12:20:46;0.49;99.99
71297;SHT31;59082;50.658;4.608;2022-12-10T12:25:51;0.57;99.99
71297;SHT31;59082;50.658;4.608;2022-12-10T12:28:28;0.65;99.99
71297;SHT31;59082;50.658;4.608;2022-12-10T12:31:01;0.54;99.99
71297;SHT31;59082;50.658;4.608;2022-12-10T12:33:50;0.52;99.99
71297;SHT31;59082;50.658;4.608;2022-12-10T12:36:24;0.36;99.99
71297;SHT31;59082;50.658;4.608;2022-12-10T12:42:17;0.36;99.99
71297;SHT31;59082;50.658;4.608;2022-12-10T12:47:56;0.52;99.99
71297;SHT31;59082;50.658;4.608;2022-12-10T12:50:43;0.41;99.99
71297;SHT31;59082;50.658;4.608;2022-12-10T12:53:13;0.42;99.99
71297;SHT31;59082;50.658;4.608;2022-12-10T12:56:05;0.45;99.99
71297;SHT31;59082;50.658;4.608;2022-12-10T13:03:48;0.62;99.99
71297;SHT31;59082;50.658;4.608;2022-12-10T13:06:25;0.57;99.99
71297;SHT31;59082;50.658;4.608;2022-12-10T13:27:16;0.72;99.99
71297;SHT31;59082;50.658;4.608;2022-12-10T13:32:19;0.45;99.99
71297;SHT31;59082;50.658;4.608;2022-12-10T13:34:45;0.55;99.99
71297;SHT31;59082;50.658;4.608;2022-12-10T13:37:53;0.40;99.99
71297;SHT31;59082;50.658;4.608;2022-12-10T13:47:55;0.42;99.99
71297;SHT31;59082;50.658;4.608;2022-12-10T13:50:51;0.45;99.99
71297;SHT31;59082;50.658;4.608;2022-12-10T13:53:28;0.41;99.99
71297;SHT31;59082;50.658;4.608;2022-12-10T14:04:47;0.73;99.99
71297;SHT31;59082;50.658;4.608;2022-12-10T14:07:15;0.79;99.99
71297;SHT31;59082;50.658;4.608;2022-12-10T14:09:53;0.61;99.99
71297;SHT31;59082;50.658;4.608;2022-12-10T14:12:40;0.61;99.99
71297;SHT31;59082;50.658;4.608;2022-12-10T14:15:19;0.54;99.99
71297;SHT31;59082;50.658;4.608;2022-12-10T14:17:49;0.52;99.99
71297;SHT31;59082;50.658;4.608;2022-12-10T14:20:20;0.42;99.99
71297;SHT31;59082;50.658;4.608;2022-12-10T14:22:53;0.36;99.99
71297;SHT31;59082;50.658;4.608;2022-12-10T14:25:44;0.44;99.99
71297;SHT31;59082;50.658;4.608;2022-12-10T14:28:13;0.42;99.99
71297;SHT31;59082;50.658;4.608;2022-12-10T14:30:47;0.21;99.99
71297;SHT31;59082;50.658;4.608;2022-12-10T14:33:16;0.10;99.99
71297;SHT31;59082;50.658;4.608;2022-12-10T14:35:46;0.21;99.99
71297;SHT31;59082;50.658;4.608;2022-12-10T14:38:21;0.13;99.99
71297;SHT31;59082;50.658;4.608;2022-12-10T14:40:49;0.18;99.99
71297;SHT31;59082;50.658;4.608;2022-12-10T14:43:41;0.20;99.99
71297;SHT31;59082;50.658;4.608;2022-12-10T14:46:14;0.10;99.99
71297;SHT31;59082;50.658;4.608;2022-12-10T14:48:41;0.04;99.99
71297;SHT31;59082;50.658;4.608;2022-12-10T14:51:18;0.04;99.99
71297;SHT31;59082;50.658;4.608;2022-12-10T14:53:48;0.17;99.99
71297;SHT31;59082;50.658;4.608;2022-12-10T14:58:56;-0.03;99.99
71297;SHT31;59082;50.658;4.608;2022-12-10T15:01:25;0.06;99.99
71297;SHT31;59082;50.658;4.608;2022-12-10T15:03:53;-0.08;99.99
71297;SHT31;59082;50.658;4.608;2022-12-10T15:06:19;0.00;99.99
71297;SHT31;59082;50.658;4.608;2022-12-10T15:08:46;0.09;99.99
71297;SHT31;59082;50.658;4.608;2022-12-10T15:11:17;0.10;99.99
71297;SHT31;59082;50.658;4.608;2022-12-10T15:13:47;0.07;99.99
71297;SHT31;59082;50.658;4.608;2022-12-10T15:16:17;0.01;99.99
71297;SHT31;59082;50.658;4.608;2022-12-10T15:18:43;-0.01;99.99
71297;SHT31;59082;50.658;4.608;2022-12-10T15:21:21;-0.01;99.99
71297;SHT31;59082;50.658;4.608;2022-12-10T15:23:47;-0.07;99.99
71297;SHT31;59082;50.658;4.608;2022-12-10T15:26:33;0.03;99.99
71297;SHT31;59082;50.658;4.608;2022-12-10T15:31:47;0.01;99.99
71297;SHT31;59082;50.658;4.608;2022-12-10T15:34:13;-0.01;99.99
71297;SHT31;59082;50.658;4.608;2022-12-10T15:36:47;-0.11;99.99
71297;SHT31;59082;50.658;4.608;2022-12-10T15:39:27;-0.13;99.99
71297;SHT31;59082;50.658;4.608;2022-12-10T15:41:58;-0.13;99.99
71297;SHT31;59082;50.658;4.608;2022-12-10T15:47:19;-0.14;99.99
71297;SHT31;59082;50.658;4.608;2022-12-10T15:49:49;-0.19;99.99
71297;SHT31;59082;50.658;4.608;2022-12-10T15:52:21;-0.13;99.99
71297;SHT31;59082;50.658;4.608;2022-12-10T15:54:49;-0.10;99.99
71297;SHT31;59082;50.658;4.608;2022-12-10T15:59:51;-0.07;99.99
71297;SHT31;59082;50.658;4.608;2022-12-10T16:02:42;-0.08;99.99
71297;SHT31;59082;50.658;4.608;2022-12-10T16:05:29;-0.11;99.99
71297;SHT31;59082;50.658;4.608;2022-12-10T16:07:58;-0.08;99.99
71297;SHT31;59082;50.658;4.608;2022-12-10T16:10:25;-0.18;99.99
71297;SHT31;59082;50.658;4.608;2022-12-10T16:13:00;-0.19;99.99
71297;SHT31;59082;50.658;4.608;2022-12-10T16:15:29;-0.19;99.99
71297;SHT31;59082;50.658;4.608;2022-12-10T16:17:55;-0.25;99.99
71297;SHT31;59082;50.658;4.608;2022-12-10T16:20:29;-0.19;99.99
71297;SHT31;59082;50.658;4.608;2022-12-10T16:22:56;-0.13;99.99
71297;SHT31;59082;50.658;4.608;2022-12-10T16:25:25;-0.15;99.99
71297;SHT31;59082;50.658;4.608;2022-12-10T16:27:51;-0.15;99.99
71297;SHT31;59082;50.658;4.608;2022-12-10T16:30:22;-0.10;99.99
71297;SHT31;59082;50.658;4.608;2022-12-10T16:32:48;-0.06;99.99
71297;SHT31;59082;50.658;4.608;2022-12-10T16:35:14;-0.18;99.99
71297;SHT31;59082;50.658;4.608;2022-12-10T16:37:44;-0.15;99.99
71297;SHT31;59082;50.658;4.608;2022-12-10T16:40:12;-0.10;99.99
71297;SHT31;59082;50.658;4.608;2022-12-10T16:42:38;-0.17;99.99
71297;SHT31;59082;50.658;4.608;2022-12-10T16:45:16;-0.21;99.99
71297;SHT31;59082;50.658;4.608;2022-12-10T16:47:43;-0.17;99.99
71297;SHT31;59082;50.658;4.608;2022-12-10T16:50:09;-0.11;99.99
71297;SHT31;59082;50.658;4.608;2022-12-10T16:52:34;-0.24;99.99
71297;SHT31;59082;50.658;4.608;2022-12-10T16:55:00;-0.18;99.99
71297;SHT31;59082;50.658;4.608;2022-12-10T16:57:27;-0.18;99.99
71297;SHT31;59082;50.658;4.608;2022-12-10T16:59:52;-0.13;99.99
71297;SHT31;59082;50.658;4.608;2022-12-10T17:02:18;-0.10;99.99
71297;SHT31;59082;50.658;4.608;2022-12-10T17:04:45;-0.07;99.99
71297;SHT31;59082;50.658;4.608;2022-12-10T17:07:11;-0.07;99.99
71297;SHT31;59082;50.658;4.608;2022-12-10T17:09:38;0.00;99.99
71297;SHT31;59082;50.658;4.608;2022-12-10T17:12:05;0.03;99.99
71297;SHT31;59082;50.658;4.608;2022-12-10T17:14:42;0.04;99.99
71297;SHT31;59082;50.658;4.608;2022-12-10T17:17:13;-0.07;99.99
71297;SHT31;59082;50.658;4.608;2022-12-10T17:19:40;-0.01;99.99
71297;SHT31;59082;50.658;4.608;2022-12-10T17:22:16;-0.04;99.99
71297;SHT31;59082;50.658;4.608;2022-12-10T17:24:41;0.01;99.99
71297;SHT31;59082;50.658;4.608;2022-12-10T17:27:18;0.07;99.99
71297;SHT31;59082;50.658;4.608;2022-12-10T17:29:46;0.11;99.99
71297;SHT31;59082;50.658;4.608;2022-12-10T17:32:32;0.18;99.99
71297;SHT31;59082;50.658;4.608;2022-12-10T17:34:58;0.20;99.99
71297;SHT31;59082;50.658;4.608;2022-12-10T17:37:25;0.27;99.99
71297;SHT31;59082;50.658;4.608;2022-12-10T17:39:54;0.25;99.99
71297;SHT31;59082;50.658;4.608;2022-12-10T17:42:19;0.28;99.99
71297;SHT31;59082;50.658;4.608;2022-12-10T17:44:45;0.30;99.99
71297;SHT31;59082;50.658;4.608;2022-12-10T17:47:23;0.31;99.99
71297;SHT31;59082;50.658;4.608;2022-12-10T17:49:52;0.40;99.99
71297;SHT31;59082;50.658;4.608;2022-12-10T17:52:17;0.32;99.99
71297;SHT31;59082;50.658;4.608;2022-12-10T17:54:43;0.31;99.99
71297;SHT31;59082;50.658;4.608;2022-12-10T17:57:14;0.40;99.99
71297;SHT31;59082;50.658;4.608;2022-12-10T17:59:41;0.42;99.99
71297;SHT31;59082;50.658;4.608;2022-12-10T18:02:09;0.48;99.99
71297;SHT31;59082;50.658;4.608;2022-12-10T18:04:36;0.45;99.99
71297;SHT31;59082;50.658;4.608;2022-12-10T18:07:02;0.49;99.99
71297;SHT31;59082;50.658;4.608;2022-12-10T18:09:28;0.54;99.99
71297;SHT31;59082;50.658;4.608;2022-12-10T18:11:53;0.49;99.99
71297;SHT31;59082;50.658;4.608;2022-12-10T18:14:19;0.45;99.99
71297;SHT31;59082;50.658;4.608;2022-12-10T18:16:45;0.59;99.99
71297;SHT31;59082;50.658;4.608;2022-12-10T18:19:13;0.59;99.99
71297;SHT31;59082;50.658;4.608;2022-12-10T18:21:40;0.59;99.99
71297;SHT31;59082;50.658;4.608;2022-12-10T18:24:06;0.52;99.99
71297;SHT31;59082;50.658;4.608;2022-12-10T18:26:33;0.55;99.99
71297;SHT31;59082;50.658;4.608;2022-12-10T18:29:00;0.61;99.99
71297;SHT31;59082;50.658;4.608;2022-12-10T18:31:29;0.55;99.99
71297;SHT31;59082;50.658;4.608;2022-12-10T18:33:58;0.59;99.99
71297;SHT31;59082;50.658;4.608;2022-12-10T18:36:26;0.64;99.99
71297;SHT31;59082;50.658;4.608;2022-12-10T18:38:54;0.69;99.99
71297;SHT31;59082;50.658;4.608;2022-12-10T18:41:21;0.75;99.99
71297;SHT31;59082;50.658;4.608;2022-12-10T18:43:49;0.76;99.99
71297;SHT31;59082;50.658;4.608;2022-12-10T18:46:26;0.73;99.99
71297;SHT31;59082;50.658;4.608;2022-12-10T18:48:52;0.78;99.99
71297;SHT31;59082;50.658;4.608;2022-12-10T18:51:20;0.78;99.99
71297;SHT31;59082;50.658;4.608;2022-12-10T18:53:51;0.80;99.99
71297;SHT31;59082;50.658;4.608;2022-12-10T18:56:21;0.85;99.99
71297;SHT31;59082;50.658;4.608;2022-12-10T18:58:50;0.72;99.99
71297;SHT31;59082;50.658;4.608;2022-12-10T19:01:20;0.78;99.99
71297;SHT31;59082;50.658;4.608;2022-12-10T19:03:50;0.80;99.99
71297;SHT31;59082;50.658;4.608;2022-12-10T19:06:32;0.79;99.99
71297;SHT31;59082;50.658;4.608;2022-12-10T19:09:11;0.72;99.99
71297;SHT31;59082;50.658;4.608;2022-12-10T19:11:39;0.76;99.99
71297;SHT31;59082;50.658;4.608;2022-12-10T19:14:07;0.83;99.99
71297;SHT31;59082;50.658;4.608;2022-12-10T19:16:53;0.83;99.99
71297;SHT31;59082;50.658;4.608;2022-12-10T19:19:19;0.73;99.99
71297;SHT31;59082;50.658;4.608;2022-12-10T19:21:47;0.75;99.99
71297;SHT31;59082;50.658;4.608;2022-12-10T19:24:13;0.76;99.99
71297;SHT31;59082;50.658;4.608;2022-12-10T19:26:51;0.80;99.99
71297;SHT31;59082;50.658;4.608;2022-12-10T19:29:20;0.83;99.99
71297;SHT31;59082;50.658;4.608;2022-12-10T19:31:49;0.76;99.99
71297;SHT31;59082;50.658;4.608;2022-12-10T19:34:16;0.69;99.99
71297;SHT31;59082;50.658;4.608;2022-12-10T19:36:43;0.83;99.99
71297;SHT31;59082;50.658;4.608;2022-12-10T19:39:23;0.83;99.99
71297;SHT31;59082;50.658;4.608;2022-12-10T19:41:50;0.95;99.99
71297;SHT31;59082;50.658;4.608;2022-12-10T19:44:19;0.96;99.99
71297;SHT31;59082;50.658;4.608;2022-12-10T19:46:55;1.00;99.99
71297;SHT31;59082;50.658;4.608;2022-12-10T19:49:21;0.96;99.99
71297;SHT31;59082;50.658;4.608;2022-12-10T19:51:46;1.01;99.99
71297;SHT31;59082;50.658;4.608;2022-12-10T19:54:12;0.93;99.99
71297;SHT31;59082;50.658;4.608;2022-12-10T19:56:44;1.00;99.99
71297;SHT31;59082;50.658;4.608;2022-12-10T19:59:14;1.01;99.99
71297;SHT31;59082;50.658;4.608;2022-12-10T20:01:41;1.01;99.99
71297;SHT31;59082;50.658;4.608;2022-12-10T20:04:06;1.00;99.99
71297;SHT31;59082;50.658;4.608;2022-12-10T20:06:36;1.03;99.99
71297;SHT31;59082;50.658;4.608;2022-12-10T20:09:05;0.90;99.99
71297;SHT31;59082;50.658;4.608;2022-12-10T20:11:32;0.95;99.99
71297;SHT31;59082;50.658;4.608;2022-12-10T20:13:57;0.92;99.99
71297;SHT31;59082;50.658;4.608;2022-12-10T20:16:26;0.97;99.99
71297;SHT31;59082;50.658;4.608;2022-12-10T20:19:01;0.99;99.99
71297;SHT31;59082;50.658;4.608;2022-12-10T20:21:27;1.03;99.99
71297;SHT31;59082;50.658;4.608;2022-12-10T20:23:54;1.08;99.99
71297;SHT31;59082;50.658;4.608;2022-12-10T20:26:50;1.10;99.99
71297;SHT31;59082;50.658;4.608;2022-12-10T20:29:21;1.12;99.99
71297;SHT31;59082;50.658;4.608;2022-12-10T20:31:48;1.13;99.99
71297;SHT31;59082;50.658;4.608;2022-12-10T20:34:15;1.07;99.99
71297;SHT31;59082;50.658;4.608;2022-12-10T20:36:41;1.13;99.99
71297;SHT31;59082;50.658;4.608;2022-12-10T20:41:44;1.14;99.99
71297;SHT31;59082;50.658;4.608;2022-12-10T20:44:09;1.10;99.99
71297;SHT31;59082;50.658;4.608;2022-12-10T20:46:35;1.04;99.99
71297;SHT31;59082;50.658;4.608;2022-12-10T20:49:02;1.08;99.99
71297;SHT31;59082;50.658;4.608;2022-12-10T20:51:27;1.14;99.99
71297;SHT31;59082;50.658;4.608;2022-12-10T20:53:53;1.13;99.99
71297;SHT31;59082;50.658;4.608;2022-12-10T20:56:20;1.06;99.99
71297;SHT31;59082;50.658;4.608;2022-12-10T20:58:47;1.10;99.99
71297;SHT31;59082;50.658;4.608;2022-12-10T21:01:13;1.17;99.99
71297;SHT31;59082;50.658;4.608;2022-12-10T21:03:39;1.12;99.99
71297;SHT31;59082;50.658;4.608;2022-12-10T21:06:06;1.06;99.99
71297;SHT31;59082;50.658;4.608;2022-12-10T21:08:32;1.04;99.99
71297;SHT31;59082;50.658;4.608;2022-12-10T21:10:58;1.16;99.99
71297;SHT31;59082;50.658;4.608;2022-12-10T21:13:26;1.12;99.99
71297;SHT31;59082;50.658;4.608;2022-12-10T21:15:53;1.08;99.99
71297;SHT31;59082;50.658;4.608;2022-12-10T21:18:25;1.08;99.99
71297;SHT31;59082;50.658;4.608;2022-12-10T21:20:51;1.10;99.99
71297;SHT31;59082;50.658;4.608;2022-12-10T21:26:12;1.07;99.99
71297;SHT31;59082;50.658;4.608;2022-12-10T21:28:38;1.12;99.99
71297;SHT31;59082;50.658;4.608;2022-12-10T21:31:22;1.07;99.99
71297;SHT31;59082;50.658;4.608;2022-12-10T21:33:48;1.04;99.99
71297;SHT31;59082;50.658;4.608;2022-12-10T21:36:15;1.08;99.99
71297;SHT31;59082;50.658;4.608;2022-12-10T21:38:51;1.14;99.99
71297;SHT31;59082;50.658;4.608;2022-12-10T22:06:26;1.08;99.99
